Time,TemperatureF,DewpointF,PressureIn,WindDirection,WindDirectionDegrees,WindSpeedMPH,WindSpeedGustMPH,Humidity,HourlyPrecipIn,Conditions,Clouds,dailyrainin,SoftwareType,DateUTC
2013-01-28 00:01:00,34.0,34.0,29.76,East,90,0.0,0.0,100,0.00,RA,,0.00,WeatherDisplay:10.37,2013-01-28 06:01:00,
2013-01-28 00:06:00,34.2,34.2,29.76,East,90,0.0,0.0,100,0.00,RA,,0.00,WeatherDisplay:10.37,2013-01-28 06:06:00,
2013-01-28 00:11:00,34.3,34.3,29.76,East,90,0.0,0.0,100,0.00,,,0.00,WeatherDisplay:10.37,2013-01-28 06:11:00,
2013-01-28 00:16:00,34.2,34.2,29.77,East,90,0.0,0.0,100,0.00,,,0.00,WeatherDisplay:10.37,2013-01-28 06:16:00,
2013-01-28 00:21:00,34.3,34.3,29.76,West,270,0.0,0.0,100,0.00,,,0.00,WeatherDisplay:10.37,2013-01-28 06:21:00,
2013-01-28 00:26:00,34.3,34.3,29.77,West,270,0.0,0.0,100,0.00,,,0.00,WeatherDisplay:10.37,2013-01-28 06:26:00,
2013-01-28 00:31:00,34.3,34.3,29.77,West,270,0.0,0.0,100,0.00,,,0.00,WeatherDisplay:10.37,2013-01-28 06:31:00,
2013-01-28 00:36:00,34.2,34.2,29.77,WNW,292,0.0,0.0,100,0.00,,,0.00,WeatherDisplay:10.37,2013-01-28 06:36:00,
2013-01-28 00:41:00,34.2,34.2,29.77,West,270,0.0,0.0,100,0.00,,,0.00,WeatherDisplay:10.37,2013-01-28 06:41:00,
2013-01-28 00:46:00,34.2,34.2,29.77,WNW,292,0.0,0.0,100,0.00,,,0.00,WeatherDisplay:10.37,2013-01-28 06:46:00,
2013-01-28 00:51:00,34.0,34.0,29.77,WNW,292,0.0,0.0,100,0.00,,,0.00,WeatherDisplay:10.37,2013-01-28 06:51:00,
2013-01-28 00:56:00,34.0,34.0,29.78,WNW,292,0.0,0.0,100,0.00,,,0.00,WeatherDisplay:10.37,2013-01-28 06:56:00,
2013-01-28 01:01:00,34.0,34.0,29.78,West,270,0.0,0.0,100,0.00,,,0.00,WeatherDisplay:10.37,2013-01-28 07:01:00,
2013-01-28 01:06:00,34.0,34.0,29.78,West,270,0.0,0.0,100,0.00,,,0.00,WeatherDisplay:10.37,2013-01-28 07:06:00,
2013-01-28 01:11:00,33.8,33.8,29.78,West,270,0.0,0.0,100,0.00,,,0.00,WeatherDisplay:10.37,2013-01-28 07:11:00,
2013-01-28 01:16:00,33.8,33.8,29.78,West,270,0.0,0.0,100,0.00,,,0.00,WeatherDisplay:10.37,2013-01-28 07:16:00,
2013-01-28 01:21:00,33.6,33.6,29.79,WSW,248,0.0,0.0,100,0.00,,,0.00,WeatherDisplay:10.37,2013-01-28 07:21:00,
2013-01-28 01:26:00,33.6,33.6,29.79,West,270,0.0,0.0,100,0.00,,,0.00,WeatherDisplay:10.37,2013-01-28 07:26:00,
2013-01-28 01:31:00,33.4,33.4,29.79,West,270,0.0,0.0,100,0.00,,,0.00,WeatherDisplay:10.37,2013-01-28 07:31:00,
2013-01-28 01:36:00,33.4,33.4,29.79,West,270,0.0,0.0,100,0.00,,,0.00,WeatherDisplay:10.37,2013-01-28 07:36:00,
2013-01-28 01:41:00,33.6,33.6,29.79,West,270,0.0,0.0,100,0.00,,,0.00,WeatherDisplay:10.37,2013-01-28 07:41:00,
2013-01-28 01:46:00,33.6,33.6,29.81,West,270,0.0,0.0,100,0.00,,,0.00,WeatherDisplay:10.37,2013-01-28 07:46:00,
2013-01-28 01:51:00,33.6,33.6,29.81,West,270,0.0,0.0,100,0.00,,,0.00,WeatherDisplay:10.37,2013-01-28 07:51:00,
2013-01-28 01:56:00,33.6,33.6,29.81,West,270,0.0,0.0,100,0.00,,,0.00,WeatherDisplay:10.37,2013-01-28 07:56:00,
2013-01-28 02:01:00,33.6,33.6,29.81,West,270,0.0,0.0,100,0.00,,,0.00,WeatherDisplay:10.37,2013-01-28 08:01:00,
2013-01-28 02:06:00,33.8,33.8,29.81,West,270,0.0,0.0,100,0.00,,,0.00,WeatherDisplay:10.37,2013-01-28 08:06:00,
2013-01-28 02:11:00,33.6,33.6,29.81,West,270,0.0,0.0,100,0.00,,,0.00,WeatherDisplay:10.37,2013-01-28 08:11:00,
2013-01-28 02:16:00,33.6,33.6,29.81,West,270,0.0,0.0,100,0.00,,,0.00,WeatherDisplay:10.37,2013-01-28 08:16:00,
2013-01-28 02:21:00,33.6,33.6,29.81,West,270,0.0,0.0,100,0.00,,,0.00,WeatherDisplay:10.37,2013-01-28 08:21:00,
2013-01-28 02:26:00,33.8,33.8,29.81,West,270,0.0,0.0,100,0.00,,,0.00,WeatherDisplay:10.37,2013-01-28 08:26:00,
2013-01-28 02:31:00,34.0,34.0,29.81,West,270,0.0,0.0,100,0.00,,,0.00,WeatherDisplay:10.37,2013-01-28 08:31:00,
2013-01-28 02:36:00,34.0,34.0,29.81,West,270,0.0,0.0,100,0.00,,,0.00,WeatherDisplay:10.37,2013-01-28 08:36:00,
2013-01-28 02:41:00,34.0,34.0,29.81,West,270,0.0,0.0,100,0.00,,,0.00,WeatherDisplay:10.37,2013-01-28 08:41:00,
2013-01-28 02:46:00,34.0,34.0,29.81,West,270,0.0,0.0,100,0.00,,,0.00,WeatherDisplay:10.37,2013-01-28 08:46:00,
2013-01-28 02:51:00,34.0,34.0,29.81,West,270,0.0,0.0,100,0.00,,,0.00,WeatherDisplay:10.37,2013-01-28 08:51:00,
2013-01-28 02:56:00,34.0,34.0,29.82,West,270,0.0,0.0,100,0.00,,,0.00,WeatherDisplay:10.37,2013-01-28 08:56:00,
2013-01-28 03:01:00,34.2,34.2,29.82,West,270,0.0,0.0,100,0.00,,,0.00,WeatherDisplay:10.37,2013-01-28 09:01:00,
2013-01-28 03:06:00,34.2,34.2,29.82,West,270,0.0,0.0,100,0.00,,,0.00,WeatherDisplay:10.37,2013-01-28 09:06:00,
2013-01-28 03:11:00,34.2,34.2,29.82,West,270,0.0,0.0,100,0.00,,,0.00,WeatherDisplay:10.37,2013-01-28 09:11:00,
2013-01-28 03:16:00,34.2,34.2,29.82,West,270,0.0,0.0,100,0.00,,,0.00,WeatherDisplay:10.37,2013-01-28 09:16:00,
2013-01-28 03:21:00,34.2,34.2,29.82,West,270,0.0,0.0,100,0.00,,,0.00,WeatherDisplay:10.37,2013-01-28 09:21:00,
2013-01-28 03:26:00,34.2,34.2,29.82,West,270,0.0,0.0,100,0.00,,,0.00,WeatherDisplay:10.37,2013-01-28 09:26:00,
2013-01-28 03:31:00,34.2,34.2,29.82,WSW,248,0.0,0.0,100,0.00,,,0.00,WeatherDisplay:10.37,2013-01-28 09:31:00,
2013-01-28 03:36:00,34.3,34.3,29.82,West,270,0.0,0.0,100,0.00,,,0.00,WeatherDisplay:10.37,2013-01-28 09:36:00,
2013-01-28 03:41:00,34.5,34.5,29.82,West,270,0.0,0.0,100,0.00,,,0.00,WeatherDisplay:10.37,2013-01-28 09:41:00,
2013-01-28 03:46:00,34.5,34.5,29.82,WNW,292,0.0,0.0,100,0.00,,,0.00,WeatherDisplay:10.37,2013-01-28 09:46:00,
2013-01-28 03:51:00,34.5,34.5,29.82,West,270,4.6,0.0,100,0.00,,,0.00,WeatherDisplay:10.37,2013-01-28 09:51:00,
2013-01-28 03:56:00,34.7,34.7,29.82,West,270,0.0,0.0,100,0.00,,,0.00,WeatherDisplay:10.37,2013-01-28 09:56:00,
2013-01-28 04:01:00,34.7,34.7,29.82,West,270,2.3,2.3,100,0.00,,,0.00,WeatherDisplay:10.37,2013-01-28 10:01:00,
2013-01-28 04:06:00,34.7,34.7,29.83,WNW,292,1.1,0.0,100,0.00,,,0.00,WeatherDisplay:10.37,2013-01-28 10:06:00,
2013-01-28 04:11:00,34.9,34.9,29.83,WNW,292,0.0,0.0,100,0.00,,,0.00,WeatherDisplay:10.37,2013-01-28 10:11:00,
2013-01-28 04:16:00,35.1,35.1,29.83,WNW,292,0.0,0.0,100,0.00,,,0.00,WeatherDisplay:10.37,2013-01-28 10:16:00,
2013-01-28 04:21:00,35.1,35.1,29.83,WNW,292,0.0,0.0,100,0.00,,,0.00,WeatherDisplay:10.37,2013-01-28 10:21:00,
2013-01-28 04:26:00,34.9,34.9,29.82,WNW,292,0.0,0.0,100,0.00,,,0.00,WeatherDisplay:10.37,2013-01-28 10:26:00,
2013-01-28 04:31:00,34.9,34.9,29.82,WNW,292,0.0,0.0,100,0.00,,,0.00,WeatherDisplay:10.37,2013-01-28 10:31:00,
2013-01-28 04:36:00,34.9,34.9,29.83,NW,315,0.0,0.0,100,0.00,,,0.00,WeatherDisplay:10.37,2013-01-28 10:36:00,
2013-01-28 04:41:00,34.7,34.7,29.83,NW,315,0.0,0.0,100,0.00,,,0.00,WeatherDisplay:10.37,2013-01-28 10:41:00,
2013-01-28 04:46:00,34.9,34.9,29.83,NW,315,0.0,0.0,100,0.00,,,0.00,WeatherDisplay:10.37,2013-01-28 10:46:00,
2013-01-28 04:51:00,34.7,34.7,29.83,NW,315,0.0,0.0,100,0.00,,,0.00,WeatherDisplay:10.37,2013-01-28 10:51:00,
2013-01-28 04:56:00,34.7,34.7,29.83,NW,315,0.0,0.0,100,0.00,,,0.00,WeatherDisplay:10.37,2013-01-28 10:56:00,
2013-01-28 05:01:00,34.7,34.7,29.83,NNW,338,0.0,0.0,100,0.00,,,0.00,WeatherDisplay:10.37,2013-01-28 11:01:00,
2013-01-28 05:06:00,34.7,34.7,29.84,NNW,338,0.0,0.0,100,0.00,,,0.00,WeatherDisplay:10.37,2013-01-28 11:06:00,
2013-01-28 05:11:00,34.7,34.7,29.84,NNW,338,0.0,0.0,100,0.00,,,0.00,WeatherDisplay:10.37,2013-01-28 11:11:00,
2013-01-28 05:16:00,34.7,34.7,29.84,NNW,338,0.0,0.0,100,0.00,,,0.00,WeatherDisplay:10.37,2013-01-28 11:16:00,
2013-01-28 05:21:00,34.7,34.7,29.84,NNW,338,0.0,0.0,100,0.00,,,0.00,WeatherDisplay:10.37,2013-01-28 11:21:00,
2013-01-28 05:26:00,34.7,34.7,29.84,NNW,338,0.0,0.0,100,0.00,,,0.00,WeatherDisplay:10.37,2013-01-28 11:26:00,
2013-01-28 05:31:00,34.7,34.7,29.84,NNW,338,0.0,0.0,100,0.00,,,0.00,WeatherDisplay:10.37,2013-01-28 11:31:00,
2013-01-28 05:36:00,34.7,34.7,29.85,NNW,338,0.0,0.0,100,0.00,,,0.00,WeatherDisplay:10.37,2013-01-28 11:36:00,
2013-01-28 05:41:00,34.7,34.7,29.84,NNW,338,0.0,0.0,100,0.00,,,0.00,WeatherDisplay:10.37,2013-01-28 11:41:00,
2013-01-28 05:46:00,34.7,34.7,29.84,NNW,338,0.0,0.0,100,0.00,,,0.00,WeatherDisplay:10.37,2013-01-28 11:46:00,
2013-01-28 05:51:00,34.7,34.7,29.84,NNW,338,0.0,0.0,100,0.00,,,0.00,WeatherDisplay:10.37,2013-01-28 11:51:00,
2013-01-28 05:56:00,34.7,34.7,29.84,NNW,338,0.0,0.0,100,0.00,,,0.00,WeatherDisplay:10.37,2013-01-28 11:56:00,
2013-01-28 06:01:00,34.7,34.7,29.84,NNW,338,0.0,0.0,100,0.00,,,0.00,WeatherDisplay:10.37,2013-01-28 12:01:00,
2013-01-28 06:06:00,34.7,34.7,29.84,NNW,338,0.0,0.0,100,0.00,,,0.00,WeatherDisplay:10.37,2013-01-28 12:06:00,
2013-01-28 06:11:00,34.9,34.9,29.85,NNW,338,0.0,0.0,100,0.00,,,0.00,WeatherDisplay:10.37,2013-01-28 12:11:00,
2013-01-28 06:16:00,34.7,34.7,29.85,NNW,338,0.0,0.0,100,0.00,,,0.00,WeatherDisplay:10.37,2013-01-28 12:16:00,
2013-01-28 06:21:00,34.7,34.7,29.85,NNW,338,0.0,0.0,100,0.00,,,0.00,WeatherDisplay:10.37,2013-01-28 12:21:00,
2013-01-28 06:26:00,34.9,34.9,29.84,NNW,338,0.0,0.0,100,0.00,,,0.00,WeatherDisplay:10.37,2013-01-28 12:26:00,
2013-01-28 06:31:00,34.7,34.7,29.85,NNW,338,0.0,0.0,100,0.00,,,0.00,WeatherDisplay:10.37,2013-01-28 12:31:00,
2013-01-28 06:36:00,34.7,34.7,29.85,NNW,338,0.0,0.0,100,0.00,,,0.00,WeatherDisplay:10.37,2013-01-28 12:36:00,
2013-01-28 06:41:00,34.5,34.5,29.85,North,0,0.0,0.0,100,0.00,,,0.00,WeatherDisplay:10.37,2013-01-28 12:41:00,
2013-01-28 06:46:00,34.3,34.3,29.85,NE,45,0.0,0.0,100,0.00,,,0.00,WeatherDisplay:10.37,2013-01-28 12:46:00,
2013-01-28 06:51:00,34.3,34.3,29.85,NE,45,0.0,0.0,100,0.00,,,0.00,WeatherDisplay:10.37,2013-01-28 12:51:00,
2013-01-28 06:56:00,34.2,34.2,29.85,NE,45,0.0,0.0,100,0.00,,,0.00,WeatherDisplay:10.37,2013-01-28 12:56:00,
2013-01-28 07:01:00,34.2,34.2,29.85,NE,45,0.0,0.0,100,0.00,,,0.00,WeatherDisplay:10.37,2013-01-28 13:01:00,
2013-01-28 07:06:00,34.3,34.3,29.85,NE,45,0.0,0.0,100,0.00,,,0.00,WeatherDisplay:10.37,2013-01-28 13:06:00,
2013-01-28 07:11:00,34.2,34.2,29.85,NE,45,0.0,0.0,100,0.00,,,0.00,WeatherDisplay:10.37,2013-01-28 13:11:00,
2013-01-28 07:16:00,34.2,34.2,29.85,NE,45,0.0,0.0,100,0.00,,,0.00,WeatherDisplay:10.37,2013-01-28 13:16:00,
2013-01-28 07:21:00,34.2,34.2,29.86,ENE,68,0.0,0.0,100,0.00,,,0.00,WeatherDisplay:10.37,2013-01-28 13:21:00,
2013-01-28 07:26:00,34.2,34.2,29.86,ESE,112,0.0,0.0,100,0.00,,,0.00,WeatherDisplay:10.37,2013-01-28 13:26:00,
2013-01-28 07:31:00,34.0,34.0,29.87,ESE,112,0.0,0.0,100,0.00,,,0.00,WeatherDisplay:10.37,2013-01-28 13:31:00,
2013-01-28 07:36:00,34.0,34.0,29.87,ESE,112,0.0,0.0,100,0.00,,,0.00,WeatherDisplay:10.37,2013-01-28 13:36:00,
2013-01-28 07:41:00,33.8,33.8,29.87,SE,135,0.0,0.0,100,0.00,,,0.00,WeatherDisplay:10.37,2013-01-28 13:41:00,
2013-01-28 07:46:00,33.8,33.8,29.87,ESE,112,0.0,0.0,100,0.00,,,0.00,WeatherDisplay:10.37,2013-01-28 13:46:00,
2013-01-28 07:51:00,33.8,33.8,29.87,ESE,112,0.0,0.0,100,0.00,,,0.00,WeatherDisplay:10.37,2013-01-28 13:51:00,
2013-01-28 07:56:00,33.6,33.6,29.87,ESE,112,0.0,0.0,100,0.00,,,0.00,WeatherDisplay:10.37,2013-01-28 13:56:00,
2013-01-28 08:01:00,33.4,33.4,29.88,SE,135,0.0,0.0,100,0.00,,,0.00,WeatherDisplay:10.37,2013-01-28 14:01:00,
2013-01-28 08:06:00,33.6,33.6,29.87,SE,135,0.0,0.0,100,0.00,,,0.00,WeatherDisplay:10.37,2013-01-28 14:06:00,
2013-01-28 08:11:00,33.8,33.8,29.88,SE,135,0.0,0.0,100,0.00,,,0.00,WeatherDisplay:10.37,2013-01-28 14:11:00,
2013-01-28 08:16:00,33.8,33.8,29.87,SE,135,0.0,0.0,100,0.00,,,0.00,WeatherDisplay:10.37,2013-01-28 14:16:00,
2013-01-28 08:21:00,33.8,33.8,29.88,SE,135,0.0,0.0,100,0.00,,,0.00,WeatherDisplay:10.37,2013-01-28 14:21:00,
2013-01-28 08:26:00,34.0,34.0,29.88,SE,135,0.0,0.0,100,0.00,,,0.00,WeatherDisplay:10.37,2013-01-28 14:26:00,
2013-01-28 08:31:00,34.0,34.0,29.88,SE,135,0.0,0.0,100,0.00,,,0.00,WeatherDisplay:10.37,2013-01-28 14:31:00,
2013-01-28 08:36:00,34.0,34.0,29.88,SE,135,0.0,0.0,100,0.00,,,0.00,WeatherDisplay:10.37,2013-01-28 14:36:00,
2013-01-28 08:41:00,34.0,34.0,29.88,ESE,112,0.0,0.0,100,0.00,,,0.00,WeatherDisplay:10.37,2013-01-28 14:41:00,
2013-01-28 08:46:00,34.0,34.0,29.88,ESE,112,0.0,0.0,100,0.00,,,0.00,WeatherDisplay:10.37,2013-01-28 14:46:00,
2013-01-28 08:51:00,34.0,34.0,29.88,ESE,112,0.0,0.0,100,0.00,,,0.00,WeatherDisplay:10.37,2013-01-28 14:51:00,
2013-01-28 08:56:00,34.0,34.0,29.88,ESE,112,0.0,0.0,100,0.00,,,0.00,WeatherDisplay:10.37,2013-01-28 14:56:00,
2013-01-28 09:01:00,34.0,34.0,29.88,ESE,112,0.0,0.0,100,0.00,,,0.00,WeatherDisplay:10.37,2013-01-28 15:01:00,
2013-01-28 09:06:00,34.0,34.0,29.89,ESE,112,0.0,0.0,100,0.00,,,0.00,WeatherDisplay:10.37,2013-01-28 15:06:00,
2013-01-28 09:11:00,34.0,34.0,29.89,SE,135,0.0,0.0,100,0.00,,,0.00,WeatherDisplay:10.37,2013-01-28 15:11:00,
2013-01-28 09:16:00,34.0,34.0,29.88,SE,135,0.0,0.0,100,0.00,,,0.00,WeatherDisplay:10.37,2013-01-28 15:16:00,
2013-01-28 09:21:00,34.2,34.2,29.88,SE,135,0.0,0.0,100,0.00,,,0.00,WeatherDisplay:10.37,2013-01-28 15:21:00,
2013-01-28 09:26:00,34.2,34.2,29.88,ESE,112,0.0,0.0,100,0.00,,,0.00,WeatherDisplay:10.37,2013-01-28 15:26:00,
2013-01-28 09:31:00,34.2,34.2,29.88,ESE,112,0.0,0.0,100,0.00,,,0.00,WeatherDisplay:10.37,2013-01-28 15:31:00,
2013-01-28 09:36:00,34.2,34.2,29.89,SE,135,0.0,0.0,100,0.00,,,0.00,WeatherDisplay:10.37,2013-01-28 15:36:00,
2013-01-28 09:41:00,34.2,34.2,29.88,SE,135,0.0,0.0,100,0.00,,,0.00,WeatherDisplay:10.37,2013-01-28 15:41:00,
2013-01-28 09:46:00,34.3,34.3,29.88,SE,135,0.0,0.0,100,0.00,,,0.00,WeatherDisplay:10.37,2013-01-28 15:46:00,
2013-01-28 09:51:00,34.2,34.2,29.88,SE,135,0.0,0.0,100,0.00,,,0.00,WeatherDisplay:10.37,2013-01-28 15:51:00,
2013-01-28 09:56:00,34.3,34.3,29.88,SE,135,0.0,0.0,100,0.00,,,0.00,WeatherDisplay:10.37,2013-01-28 15:56:00,
2013-01-28 10:01:00,34.5,34.5,29.88,SSE,158,2.2,2.2,100,0.00,,,0.00,WeatherDisplay:10.37,2013-01-28 16:01:00,
2013-01-28 10:06:00,34.5,34.5,29.88,SE,135,3.5,3.5,100,0.00,,,0.00,WeatherDisplay:10.37,2013-01-28 16:06:00,
2013-01-28 10:11:00,34.5,34.5,29.87,SSE,158,0.0,0.0,100,0.00,,,0.00,WeatherDisplay:10.37,2013-01-28 16:11:00,
2013-01-28 10:16:00,34.7,34.7,29.87,SE,135,0.0,0.0,100,0.00,,,0.00,WeatherDisplay:10.37,2013-01-28 16:16:00,
2013-01-28 10:21:00,34.9,34.9,29.87,SE,135,0.0,0.0,100,0.00,,,0.00,WeatherDisplay:10.37,2013-01-28 16:21:00,
2013-01-28 10:26:00,35.1,35.1,29.87,ESE,112,0.0,0.0,100,0.00,,,0.00,WeatherDisplay:10.37,2013-01-28 16:26:00,
2013-01-28 10:31:00,34.7,34.7,29.85,ESE,112,3.5,3.5,100,0.00,,,0.00,WeatherDisplay:10.37,2013-01-28 16:31:00,
2013-01-28 10:36:00,34.7,34.7,29.85,ESE,112,0.0,0.0,100,0.00,,,0.00,WeatherDisplay:10.37,2013-01-28 16:36:00,
2013-01-28 10:41:00,34.7,34.7,29.84,ESE,112,0.0,0.0,100,0.00,,,0.00,WeatherDisplay:10.37,2013-01-28 16:41:00,
2013-01-28 10:46:00,35.1,35.1,29.84,ESE,112,3.5,3.5,100,0.00,,,0.00,WeatherDisplay:10.37,2013-01-28 16:46:00,
2013-01-28 10:51:00,34.9,34.9,29.84,ESE,112,3.5,3.5,100,0.00,,,0.00,WeatherDisplay:10.37,2013-01-28 16:51:00,
2013-01-28 10:56:00,35.1,35.1,29.85,East,90,2.3,2.3,100,0.00,,,0.00,WeatherDisplay:10.37,2013-01-28 16:56:00,
2013-01-28 11:01:00,35.2,35.2,29.86,ESE,112,3.5,3.5,100,0.00,,,0.00,WeatherDisplay:10.37,2013-01-28 17:01:00,
2013-01-28 11:06:00,35.2,35.2,29.86,ESE,112,0.0,0.0,100,0.00,,,0.00,WeatherDisplay:10.37,2013-01-28 17:06:00,
2013-01-28 11:11:00,35.2,35.2,29.87,ESE,112,0.0,0.0,100,0.00,,,0.00,WeatherDisplay:10.37,2013-01-28 17:11:00,
2013-01-28 11:16:00,35.2,35.2,29.86,ENE,68,0.0,0.0,100,0.00,,,0.00,WeatherDisplay:10.37,2013-01-28 17:16:00,
2013-01-28 11:21:00,35.4,35.4,29.86,ESE,112,0.0,0.0,100,0.00,,,0.00,WeatherDisplay:10.37,2013-01-28 17:21:00,
2013-01-28 11:26:00,35.4,35.4,29.86,East,90,0.0,0.0,100,0.00,,,0.00,WeatherDisplay:10.37,2013-01-28 17:26:00,
2013-01-28 11:31:00,35.8,35.8,29.86,SE,135,0.0,0.0,100,0.00,,,0.00,WeatherDisplay:10.37,2013-01-28 17:31:00,
2013-01-28 11:36:00,36.0,36.0,29.85,ESE,112,0.0,0.0,100,0.00,,,0.00,WeatherDisplay:10.37,2013-01-28 17:36:00,
2013-01-28 11:41:00,36.1,36.1,29.86,ENE,68,0.0,0.0,100,0.00,,,0.00,WeatherDisplay:10.37,2013-01-28 17:41:00,
2013-01-28 11:46:00,36.3,36.3,29.85,ENE,68,0.0,0.0,100,0.00,,,0.00,WeatherDisplay:10.37,2013-01-28 17:46:00,
2013-01-28 11:51:00,36.1,36.1,29.84,ENE,68,3.5,0.0,100,0.00,,,0.00,WeatherDisplay:10.37,2013-01-28 17:51:00,
2013-01-28 11:56:00,36.0,36.0,29.84,ESE,112,1.1,1.1,100,0.00,,,0.00,WeatherDisplay:10.37,2013-01-28 17:56:00,
2013-01-28 12:01:00,36.0,36.0,29.83,ESE,112,2.3,2.3,100,0.00,,,0.00,WeatherDisplay:10.37,2013-01-28 18:01:00,
2013-01-28 12:06:00,36.0,36.0,29.84,ESE,112,3.5,4.1,100,0.00,,,0.00,WeatherDisplay:10.37,2013-01-28 18:06:00,
2013-01-28 12:11:00,36.1,36.1,29.84,SE,135,5.7,5.7,100,0.00,,,0.00,WeatherDisplay:10.37,2013-01-28 18:11:00,
2013-01-28 12:16:00,36.1,36.1,29.83,ESE,112,4.6,4.7,100,0.00,,,0.00,WeatherDisplay:10.37,2013-01-28 18:16:00,
2013-01-28 12:21:00,36.1,36.1,29.83,ESE,112,8.1,9.0,100,0.00,,,0.00,WeatherDisplay:10.37,2013-01-28 18:21:00,
2013-01-28 12:26:00,36.3,36.3,29.83,SE,135,8.1,8.2,100,0.00,CLR,,0.00,WeatherDisplay:10.37,2013-01-28 18:26:00,
2013-01-28 12:31:00,36.3,36.3,29.83,SE,135,10.4,10.8,100,0.00,CLR,,0.00,WeatherDisplay:10.37,2013-01-28 18:31:00,
2013-01-28 12:36:00,36.3,36.3,29.82,SE,135,10.4,10.4,100,0.00,CLR,,0.00,WeatherDisplay:10.37,2013-01-28 18:36:00,
2013-01-28 12:41:00,36.5,36.5,29.82,ESE,112,8.7,8.7,100,0.00,CLR,,0.00,WeatherDisplay:10.37,2013-01-28 18:41:00,
2013-01-28 12:46:00,36.5,36.5,29.81,ESE,112,9.2,9.5,100,0.00,CLR,,0.00,WeatherDisplay:10.37,2013-01-28 18:46:00,
2013-01-28 12:51:00,36.5,36.5,29.81,ESE,112,2.7,2.9,100,0.00,CLR,,0.00,WeatherDisplay:10.37,2013-01-28 18:51:00,
2013-01-28 12:56:00,36.5,36.5,29.81,ESE,112,4.6,4.6,100,0.00,CLR,,0.00,WeatherDisplay:10.37,2013-01-28 18:56:00,
2013-01-28 13:01:00,36.9,36.9,29.81,East,90,8.1,8.1,100,0.00,,,0.00,WeatherDisplay:10.37,2013-01-28 19:01:00,
2013-01-28 13:06:00,36.9,36.9,29.81,East,90,9.2,9.8,100,0.00,,,0.00,WeatherDisplay:10.37,2013-01-28 19:06:00,
2013-01-28 13:11:00,36.5,36.5,29.79,East,90,1.1,1.2,100,0.00,CLR,,0.00,WeatherDisplay:10.37,2013-01-28 19:11:00,
2013-01-28 13:16:00,36.9,36.9,29.79,ESE,112,9.2,9.2,100,0.00,CLR,,0.00,WeatherDisplay:10.37,2013-01-28 19:16:00,
2013-01-28 13:21:00,36.9,36.9,29.79,ESE,112,11.5,12.2,100,0.00,CLR,,0.00,WeatherDisplay:10.37,2013-01-28 19:21:00,
2013-01-28 13:26:00,37.0,37.0,29.78,East,90,4.9,4.9,100,0.00,CLR,,0.00,WeatherDisplay:10.37,2013-01-28 19:26:00,
2013-01-28 13:31:00,37.0,37.0,29.79,ESE,112,8.1,8.1,100,0.00,CLR,,0.00,WeatherDisplay:10.37,2013-01-28 19:31:00,
2013-01-28 13:36:00,37.0,37.0,29.79,East,90,9.2,9.8,100,0.00,CLR,,0.00,WeatherDisplay:10.37,2013-01-28 19:36:00,
2013-01-28 13:41:00,36.9,36.9,29.79,ESE,112,12.7,12.7,100,0.00,CLR,,0.00,WeatherDisplay:10.37,2013-01-28 19:41:00,
2013-01-28 13:46:00,36.9,36.9,29.79,ESE,112,9.2,9.2,100,0.00,CLR,,0.00,WeatherDisplay:10.37,2013-01-28 19:46:00,
2013-01-28 13:51:00,36.9,36.9,29.78,ESE,112,1.4,1.4,100,0.00,CLR,,0.00,WeatherDisplay:10.37,2013-01-28 19:51:00,
2013-01-28 13:56:00,36.9,36.9,29.78,East,90,5.8,6.5,100,0.00,,,0.00,WeatherDisplay:10.37,2013-01-28 19:56:00,
2013-01-28 14:01:00,36.9,36.9,29.77,East,90,8.1,8.4,100,0.00,,,0.00,WeatherDisplay:10.37,2013-01-28 20:01:00,
2013-01-28 14:06:00,36.7,36.7,29.76,East,90,8.1,8.1,100,0.00,CLR,,0.00,WeatherDisplay:10.37,2013-01-28 20:06:00,
2013-01-28 14:11:00,36.5,36.5,29.77,ESE,112,6.9,6.9,100,0.00,CLR,,0.00,WeatherDisplay:10.37,2013-01-28 20:11:00,
2013-01-28 14:16:00,36.5,36.5,29.76,ESE,112,7.0,7.5,100,0.00,CLR,,0.00,WeatherDisplay:10.37,2013-01-28 20:16:00,
2013-01-28 14:21:00,36.7,36.7,29.76,East,90,9.2,9.2,100,0.00,CLR,,0.00,WeatherDisplay:10.37,2013-01-28 20:21:00,
2013-01-28 14:27:00,36.5,36.5,29.76,ESE,112,11.1,11.1,100,0.00,CLR,,0.00,WeatherDisplay:10.37,2013-01-28 20:27:00,
2013-01-28 14:32:00,36.9,36.9,29.75,ESE,112,8.1,8.4,100,0.00,CLR,,0.00,WeatherDisplay:10.37,2013-01-28 20:32:00,
2013-01-28 14:37:00,36.9,36.9,29.76,ENE,68,11.9,11.9,100,0.00,CLR,,0.00,WeatherDisplay:10.37,2013-01-28 20:37:00,
2013-01-28 14:42:00,36.9,36.9,29.76,ENE,68,11.9,11.9,100,0.00,CLR,,0.00,WeatherDisplay:10.37,2013-01-28 20:42:00,
2013-01-28 15:02:00,36.9,36.9,29.76,ESE,112,8.1,8.6,100,0.00,CLR,,0.00,WeatherDisplay:10.37,2013-01-28 21:02:00,
2013-01-28 15:07:00,36.5,36.5,29.74,East,90,8.1,8.4,100,0.00,CLR,,0.00,WeatherDisplay:10.37,2013-01-28 21:07:00,
2013-01-28 15:12:00,36.3,36.3,29.74,ENE,68,10.4,10.4,100,0.00,CLR,,0.00,WeatherDisplay:10.37,2013-01-28 21:12:00,
2013-01-28 15:17:00,36.3,36.3,29.74,East,90,7.3,7.7,100,0.00,CLR,,0.00,WeatherDisplay:10.37,2013-01-28 21:17:00,
2013-01-28 15:22:00,36.3,36.3,29.74,ESE,112,9.7,10.4,100,0.00,CLR,,0.00,WeatherDisplay:10.37,2013-01-28 21:22:00,
2013-01-28 15:27:00,36.3,36.3,29.74,ESE,112,12.4,12.4,100,0.00,CLR,,0.00,WeatherDisplay:10.37,2013-01-28 21:27:00,
2013-01-28 15:32:00,36.3,36.3,29.74,East,90,8.1,8.1,100,0.00,CLR,,0.00,WeatherDisplay:10.37,2013-01-28 21:32:00,
2013-01-28 15:37:00,36.3,36.3,29.74,SE,135,9.2,9.8,100,0.00,CLR,,0.00,WeatherDisplay:10.37,2013-01-28 21:37:00,
2013-01-28 15:42:00,36.3,36.3,29.74,East,90,9.7,10.4,100,0.00,CLR,,0.00,WeatherDisplay:10.37,2013-01-28 21:42:00,
2013-01-28 15:47:00,36.3,36.3,29.74,East,90,10.4,10.7,100,0.00,CLR,,0.00,WeatherDisplay:10.37,2013-01-28 21:47:00,
2013-01-28 15:52:00,36.3,36.3,29.73,East,90,6.8,6.8,100,0.00,CLR,,0.00,WeatherDisplay:10.37,2013-01-28 21:52:00,
2013-01-28 15:57:00,36.3,36.3,29.73,ESE,112,8.1,8.1,100,0.00,CLR,,0.00,WeatherDisplay:10.37,2013-01-28 21:57:00,
2013-01-28 16:02:00,36.3,36.3,29.74,ESE,112,9.2,9.2,100,0.00,CLR,,0.00,WeatherDisplay:10.37,2013-01-28 22:02:00,
2013-01-28 16:07:00,36.3,36.3,29.73,ESE,112,6.9,7.2,100,0.00,CLR,,0.00,WeatherDisplay:10.37,2013-01-28 22:07:00,
2013-01-28 16:12:00,36.3,36.3,29.73,ESE,112,9.2,9.2,100,0.00,CLR,,0.00,WeatherDisplay:10.37,2013-01-28 22:12:00,
2013-01-28 16:17:00,36.3,36.3,29.73,ESE,112,9.2,9.2,100,0.00,CLR,,0.00,WeatherDisplay:10.37,2013-01-28 22:17:00,
2013-01-28 16:22:00,36.3,36.3,29.73,East,90,11.5,11.5,100,0.00,CLR,,0.00,WeatherDisplay:10.37,2013-01-28 22:22:00,
2013-01-28 16:27:00,36.5,36.5,29.72,ESE,112,8.1,8.4,100,0.00,CLR,,0.00,WeatherDisplay:10.37,2013-01-28 22:27:00,
2013-01-28 16:32:00,36.5,36.5,29.72,ENE,68,9.7,10.4,100,0.00,CLR,,0.00,WeatherDisplay:10.37,2013-01-28 22:32:00,
2013-01-28 16:37:00,36.5,36.5,29.72,ESE,112,9.7,9.9,100,0.00,CLR,,0.00,WeatherDisplay:10.37,2013-01-28 22:37:00,
2013-01-28 16:42:00,36.5,36.5,29.72,East,90,4.6,4.6,100,0.00,CLR,,0.00,WeatherDisplay:10.37,2013-01-28 22:42:00,
2013-01-28 16:47:00,36.5,36.5,29.72,ESE,112,12.7,12.7,100,0.00,CLR,,0.00,WeatherDisplay:10.37,2013-01-28 22:47:00,
2013-01-28 16:52:00,36.5,36.5,29.71,ESE,112,7.8,7.8,100,0.00,CLR,,0.00,WeatherDisplay:10.37,2013-01-28 22:52:00,
2013-01-28 16:57:00,36.5,36.5,29.71,East,90,8.1,8.2,100,0.00,CLR,,0.00,WeatherDisplay:10.37,2013-01-28 22:57:00,
2013-01-28 17:02:00,36.5,36.5,29.71,East,90,6.9,6.9,100,0.00,CLR,,0.00,WeatherDisplay:10.37,2013-01-28 23:02:00,
2013-01-28 17:07:00,36.7,36.7,29.71,ESE,112,10.0,10.0,100,0.00,CLR,,0.00,WeatherDisplay:10.37,2013-01-28 23:07:00,
2013-01-28 17:12:00,36.5,36.5,29.71,ESE,112,9.7,9.7,100,0.00,CLR,,0.00,WeatherDisplay:10.37,2013-01-28 23:12:00,
2013-01-28 17:17:00,36.5,36.5,29.70,East,90,8.1,8.1,100,0.00,CLR,,0.00,WeatherDisplay:10.37,2013-01-28 23:17:00,
2013-01-28 17:22:00,36.5,36.5,29.70,ESE,112,5.9,5.9,100,0.00,CLR,,0.00,WeatherDisplay:10.37,2013-01-28 23:22:00,
2013-01-28 17:27:00,36.5,36.5,29.70,East,90,8.1,8.1,100,0.00,,,0.00,WeatherDisplay:10.37,2013-01-28 23:27:00,
2013-01-28 17:32:00,36.5,36.5,29.69,ESE,112,8.4,9.0,100,0.00,CLR,,0.00,WeatherDisplay:10.37,2013-01-28 23:32:00,
2013-01-28 17:37:00,36.5,36.5,29.69,ESE,112,5.8,5.8,100,0.00,CLR,,0.00,WeatherDisplay:10.37,2013-01-28 23:37:00,
2013-01-28 17:42:00,36.3,36.3,29.69,East,90,9.2,9.2,100,0.00,CLR,,0.00,WeatherDisplay:10.37,2013-01-28 23:42:00,
2013-01-28 17:47:00,36.3,36.3,29.69,ESE,112,9.2,9.3,100,0.00,CLR,,0.00,WeatherDisplay:10.37,2013-01-28 23:47:00,
2013-01-28 17:52:00,36.5,36.5,29.69,ESE,112,4.6,4.9,100,0.00,CLR,,0.00,WeatherDisplay:10.37,2013-01-28 23:52:00,
2013-01-28 17:57:00,36.5,36.5,29.69,ESE,112,8.1,8.1,100,0.00,CLR,,0.00,WeatherDisplay:10.37,2013-01-28 23:57:00,
2013-01-28 18:02:00,36.5,36.5,29.68,ESE,112,11.5,11.9,100,0.00,CLR,,0.00,WeatherDisplay:10.37,2013-01-29 00:02:00,
2013-01-28 18:07:00,36.5,36.5,29.68,ESE,112,8.4,8.6,100,0.00,CLR,,0.00,WeatherDisplay:10.37,2013-01-29 00:07:00,
2013-01-28 18:12:00,36.5,36.5,29.68,ESE,112,5.8,6.7,100,0.00,CLR,,0.00,WeatherDisplay:10.37,2013-01-29 00:12:00,
2013-01-28 18:17:00,36.5,36.5,29.68,East,90,11.5,11.9,100,0.00,CLR,,0.00,WeatherDisplay:10.37,2013-01-29 00:17:00,
2013-01-28 18:22:00,36.5,36.5,29.69,ESE,112,9.2,9.2,100,0.00,CLR,,0.00,WeatherDisplay:10.37,2013-01-29 00:22:00,
2013-01-28 18:27:00,36.5,36.5,29.68,ESE,112,1.4,1.4,100,0.00,CLR,,0.00,WeatherDisplay:10.37,2013-01-29 00:27:00,
2013-01-28 18:32:00,36.5,36.5,29.68,ESE,112,8.1,8.4,100,0.00,,,0.00,WeatherDisplay:10.37,2013-01-29 00:32:00,
2013-01-28 18:37:00,36.5,36.5,29.68,ESE,112,5.9,6.5,100,0.00,CLR,,0.00,WeatherDisplay:10.37,2013-01-29 00:37:00,
2013-01-28 18:42:00,36.5,36.5,29.68,East,90,10.8,11.6,100,0.00,CLR,,0.00,WeatherDisplay:10.37,2013-01-29 00:42:00,
2013-01-28 18:47:00,36.5,36.5,29.68,ESE,112,12.7,13.6,100,0.00,CLR,,0.00,WeatherDisplay:10.37,2013-01-29 00:47:00,
2013-01-28 18:52:00,36.5,36.5,29.68,ESE,112,10.5,11.2,100,0.00,CLR,,0.00,WeatherDisplay:10.37,2013-01-29 00:52:00,
2013-01-28 18:57:00,36.7,36.7,29.68,ESE,112,6.9,6.9,100,0.00,CLR,,0.00,WeatherDisplay:10.37,2013-01-29 00:57:00,
2013-01-28 19:02:00,36.7,36.7,29.68,ESE,112,5.7,5.7,100,0.00,CLR,,0.00,WeatherDisplay:10.37,2013-01-29 01:02:00,
2013-01-28 19:07:00,36.7,36.7,29.68,ESE,112,9.5,9.5,100,0.00,,,0.00,WeatherDisplay:10.37,2013-01-29 01:07:00,
2013-01-28 19:12:00,36.5,36.5,29.67,ESE,112,6.9,6.9,100,0.00,CLR,,0.00,WeatherDisplay:10.37,2013-01-29 01:12:00,
2013-01-28 19:17:00,36.5,36.5,29.67,ESE,112,7.0,7.5,100,0.00,CLR,,0.00,WeatherDisplay:10.37,2013-01-29 01:17:00,
2013-01-28 19:22:00,36.5,36.5,29.67,ESE,112,6.9,6.9,100,0.00,CLR,,0.00,WeatherDisplay:10.37,2013-01-29 01:22:00,
2013-01-28 19:27:00,36.5,36.5,29.66,ESE,112,1.1,1.2,100,0.00,,,0.00,WeatherDisplay:10.37,2013-01-29 01:27:00,
2013-01-28 19:32:00,36.5,36.5,29.66,ESE,112,7.0,7.5,100,0.00,,,0.00,WeatherDisplay:10.37,2013-01-29 01:32:00,
2013-01-28 19:37:00,36.5,36.5,29.66,ESE,112,8.1,8.1,100,0.00,,,0.00,WeatherDisplay:10.37,2013-01-29 01:37:00,
2013-01-28 19:42:00,36.7,36.7,29.66,ESE,112,5.8,5.8,100,0.00,CLR,,0.00,WeatherDisplay:10.37,2013-01-29 01:42:00,
2013-01-28 19:47:00,36.9,36.9,29.66,ESE,112,6.9,6.9,100,0.00,,,0.00,WeatherDisplay:10.37,2013-01-29 01:47:00,
2013-01-28 19:52:00,36.9,36.9,29.65,ESE,112,9.2,9.3,100,0.00,,,0.00,WeatherDisplay:10.37,2013-01-29 01:52:00,
2013-01-28 19:57:00,37.0,37.0,29.65,ESE,112,8.1,8.1,100,0.00,CLR,,0.00,WeatherDisplay:10.37,2013-01-29 01:57:00,
2013-01-28 20:02:00,37.0,37.0,29.64,ESE,112,7.3,7.3,100,0.00,,,0.00,WeatherDisplay:10.37,2013-01-29 02:02:00,
2013-01-28 20:07:00,37.0,37.0,29.64,ESE,112,4.6,4.9,100,0.00,,,0.00,WeatherDisplay:10.37,2013-01-29 02:07:00,
2013-01-28 20:12:00,37.4,37.4,29.64,ESE,112,6.2,6.7,100,0.00,,,0.00,WeatherDisplay:10.37,2013-01-29 02:12:00,
2013-01-28 20:17:00,37.6,37.6,29.63,ESE,112,8.1,8.4,100,0.00,CLR,,0.00,WeatherDisplay:10.37,2013-01-29 02:17:00,
2013-01-28 20:22:00,38.3,38.3,29.63,SE,135,11.5,12.2,100,0.00,CLR,,0.00,WeatherDisplay:10.37,2013-01-29 02:22:00,
2013-01-28 20:27:00,38.3,38.3,29.63,SE,135,11.5,11.9,100,0.00,CLR,,0.00,WeatherDisplay:10.37,2013-01-29 02:27:00,
2013-01-28 20:32:00,38.8,38.8,29.63,SE,135,7.3,7.3,100,0.00,CLR,,0.00,WeatherDisplay:10.37,2013-01-29 02:32:00,
2013-01-28 20:37:00,38.8,38.8,29.62,SE,135,6.9,6.9,100,0.00,CLR,,0.00,WeatherDisplay:10.37,2013-01-29 02:37:00,
2013-01-28 20:42:00,38.8,38.8,29.62,SE,135,9.2,9.5,100,0.00,CLR,,0.00,WeatherDisplay:10.37,2013-01-29 02:42:00,
2013-01-28 20:47:00,39.0,39.0,29.62,SE,135,3.5,3.5,100,0.00,CLR,,0.00,WeatherDisplay:10.37,2013-01-29 02:47:00,
2013-01-28 20:52:00,39.4,39.4,29.62,SE,135,8.1,8.1,100,0.00,CLR,,0.00,WeatherDisplay:10.37,2013-01-29 02:52:00,
2013-01-28 20:57:00,39.6,39.6,29.62,SE,135,6.9,6.9,100,0.00,CLR,,0.00,WeatherDisplay:10.37,2013-01-29 02:57:00,
2013-01-28 21:02:00,39.7,39.7,29.61,SE,135,4.6,5.9,100,0.00,CLR,,0.00,WeatherDisplay:10.37,2013-01-29 03:02:00,
2013-01-28 21:07:00,39.7,39.7,29.60,SE,135,10.4,10.4,100,0.00,CLR,,0.00,WeatherDisplay:10.37,2013-01-29 03:07:00,
2013-01-28 21:12:00,39.9,39.9,29.59,SE,135,10.4,11.6,100,0.00,CLR,,0.00,WeatherDisplay:10.37,2013-01-29 03:12:00,
2013-01-28 21:17:00,39.7,39.7,29.59,ESE,112,8.1,9.0,100,0.00,CLR,,0.00,WeatherDisplay:10.37,2013-01-29 03:17:00,
2013-01-28 21:22:00,39.6,39.6,29.59,SE,135,8.1,8.1,100,0.00,CLR,,0.00,WeatherDisplay:10.37,2013-01-29 03:22:00,
2013-01-28 21:27:00,39.6,39.6,29.59,SE,135,1.1,1.7,100,0.00,CLR,,0.00,WeatherDisplay:10.37,2013-01-29 03:27:00,
2013-01-28 21:32:00,39.4,39.4,29.59,SE,135,2.4,2.4,100,0.00,,,0.00,WeatherDisplay:10.37,2013-01-29 03:32:00,
2013-01-28 21:37:00,39.4,39.4,29.59,SE,135,1.1,1.2,100,0.00,,,0.00,WeatherDisplay:10.37,2013-01-29 03:37:00,
2013-01-28 21:42:00,39.4,39.4,29.58,SE,135,1.1,1.3,100,0.00,,,0.00,WeatherDisplay:10.37,2013-01-29 03:42:00,
2013-01-28 21:47:00,39.6,39.6,29.58,SE,135,2.7,2.7,100,0.00,,,0.00,WeatherDisplay:10.37,2013-01-29 03:47:00,
2013-01-28 21:52:00,39.9,39.9,29.58,SE,135,1.6,1.7,100,0.00,,,0.00,WeatherDisplay:10.37,2013-01-29 03:52:00,
2013-01-28 21:57:00,40.5,40.5,29.58,SSE,158,1.6,1.7,100,0.00,,,0.00,WeatherDisplay:10.37,2013-01-29 03:57:00,
2013-01-28 22:02:00,40.6,40.6,29.57,SE,135,8.1,8.1,100,0.00,,,0.00,WeatherDisplay:10.37,2013-01-29 04:02:00,
2013-01-28 22:07:00,40.8,40.8,29.57,SE,135,6.9,6.9,100,0.00,,,0.00,WeatherDisplay:10.37,2013-01-29 04:07:00,
2013-01-28 22:12:00,41.2,41.2,29.57,SE,135,3.5,3.6,100,0.00,CLR,,0.00,WeatherDisplay:10.37,2013-01-29 04:12:00,
2013-01-28 22:17:00,41.0,41.0,29.57,SE,135,6.9,6.9,100,0.00,,,0.00,WeatherDisplay:10.37,2013-01-29 04:17:00,
2013-01-28 22:22:00,41.0,41.0,29.57,SSE,158,8.1,8.1,100,0.00,,,0.00,WeatherDisplay:10.37,2013-01-29 04:22:00,
2013-01-28 22:27:00,41.0,41.0,29.56,SE,135,2.7,2.7,100,0.00,,,0.00,WeatherDisplay:10.37,2013-01-29 04:27:00,
2013-01-28 22:32:00,40.8,40.8,29.56,SE,135,6.9,7.3,100,0.00,,,0.00,WeatherDisplay:10.37,2013-01-29 04:32:00,
2013-01-28 22:37:00,40.6,40.6,29.56,SE,135,4.6,0.0,100,0.00,,,0.00,WeatherDisplay:10.37,2013-01-29 04:37:00,
2013-01-28 22:42:00,40.6,40.6,29.57,SSE,158,0.0,0.0,100,0.00,,,0.00,WeatherDisplay:10.37,2013-01-29 04:42:00,
2013-01-28 22:47:00,40.5,40.5,29.56,SW,225,0.0,0.0,100,0.00,,,0.00,WeatherDisplay:10.37,2013-01-29 04:47:00,
2013-01-28 22:52:00,40.5,40.5,29.56,SE,135,0.0,0.0,100,0.00,,,0.00,WeatherDisplay:10.37,2013-01-29 04:52:00,
2013-01-28 22:57:00,40.3,40.3,29.56,SE,135,1.4,1.4,100,0.00,,,0.00,WeatherDisplay:10.37,2013-01-29 04:57:00,
2013-01-28 23:00:00,40.3,40.3,29.56,SE,135,1.1,1.1,100,0.00,,,0.00,WeatherDisplay:10.37,2013-01-29 05:00:00,
2013-01-28 23:02:00,40.1,40.1,29.56,SE,135,0.0,0.0,100,0.00,,,0.00,WeatherDisplay:10.37,2013-01-29 05:02:00,
2013-01-28 23:07:00,39.9,39.9,29.56,SE,135,0.0,0.0,100,0.00,,,0.00,WeatherDisplay:10.37,2013-01-29 05:07:00,
2013-01-28 23:12:00,39.9,39.9,29.56,SE,135,0.0,0.0,100,0.00,,,0.00,WeatherDisplay:10.37,2013-01-29 05:12:00,
2013-01-28 23:17:00,39.9,39.9,29.55,SE,135,0.0,0.0,100,0.00,,,0.00,WeatherDisplay:10.37,2013-01-29 05:17:00,
2013-01-28 23:22:00,39.9,39.9,29.55,SE,135,0.0,0.0,100,0.00,,,0.00,WeatherDisplay:10.37,2013-01-29 05:22:00,
2013-01-28 23:27:00,39.7,39.7,29.55,SE,135,0.0,0.0,100,0.00,,,0.00,WeatherDisplay:10.37,2013-01-29 05:27:00,
2013-01-28 23:32:00,39.4,39.4,29.55,SE,135,2.7,2.8,100,0.00,,,0.00,WeatherDisplay:10.37,2013-01-29 05:32:00,
2013-01-28 23:37:00,38.8,38.8,29.55,SE,135,2.3,2.3,100,0.00,,,0.00,WeatherDisplay:10.37,2013-01-29 05:37:00,
2013-01-28 23:42:00,38.8,38.8,29.55,SE,135,1.4,1.4,100,0.00,,,0.00,WeatherDisplay:10.37,2013-01-29 05:42:00,
2013-01-28 23:47:00,38.7,38.7,29.55,SE,135,0.0,0.0,100,0.00,,,0.00,WeatherDisplay:10.37,2013-01-29 05:47:00,
2013-01-28 23:52:00,38.7,38.7,29.53,SE,135,0.0,0.0,100,0.00,,,0.00,WeatherDisplay:10.37,2013-01-29 05:52:00,
2013-01-28 23:57:00,38.7,38.7,29.53,SE,135,0.0,0.0,100,0.00,,,0.00,WeatherDisplay:10.37,2013-01-29 05:57:00,